地図

経路データ

SID SEASON NUMBER BASIN SUBBASIN NAME ISO_TIME NATURE LAT LON WMO_WIND WMO_PRES WMO_AGENCY TRACK_TYPE DIST2LAND LANDFALL IFLAG USA_AGENCY USA_ATCF_ID USA_LAT USA_LON USA_RECORD USA_STATUS USA_WIND USA_PRES USA_SSHS USA_R34_NE USA_R34_SE USA_R34_SW USA_R34_NW USA_R50_NE USA_R50_SE USA_R50_SW USA_R50_NW USA_R64_NE USA_R64_SE USA_R64_SW USA_R64_NW USA_POCI USA_ROCI USA_RMW USA_EYE TOKYO_LAT TOKYO_LON TOKYO_GRADE TOKYO_WIND TOKYO_PRES TOKYO_R50_DIR TOKYO_R50_LONG TOKYO_R50_SHORT TOKYO_R30_DIR TOKYO_R30_LONG TOKYO_R30_SHORT TOKYO_LAND CMA_LAT CMA_LON CMA_CAT CMA_WIND CMA_PRES HKO_LAT HKO_LON HKO_CAT HKO_WIND HKO_PRES NEWDELHI_LAT NEWDELHI_LON NEWDELHI_GRADE NEWDELHI_WIND NEWDELHI_PRES NEWDELHI_CI NEWDELHI_DP NEWDELHI_POCI REUNION_LAT REUNION_LON REUNION_TYPE REUNION_WIND REUNION_PRES REUNION_TNUM REUNION_CI REUNION_RMW REUNION_R34_NE REUNION_R34_SE REUNION_R34_SW REUNION_R34_NW REUNION_R50_NE REUNION_R50_SE REUNION_R50_SW REUNION_R50_NW REUNION_R64_NE REUNION_R64_SE REUNION_R64_SW REUNION_R64_NW BOM_LAT BOM_LON BOM_TYPE BOM_WIND BOM_PRES BOM_TNUM BOM_CI BOM_RMW BOM_R34_NE BOM_R34_SE BOM_R34_SW BOM_R34_NW BOM_R50_NE BOM_R50_SE BOM_R50_SW BOM_R50_NW BOM_R64_NE BOM_R64_SE BOM_R64_SW BOM_R64_NW BOM_ROCI BOM_POCI BOM_EYE BOM_POS_METHOD BOM_PRES_METHOD NADI_LAT NADI_LON NADI_CAT NADI_WIND NADI_PRES WELLINGTON_LAT WELLINGTON_LON WELLINGTON_WIND WELLINGTON_PRES DS824_LAT DS824_LON DS824_STAGE DS824_WIND DS824_PRES TD9636_LAT TD9636_LON TD9636_STAGE TD9636_WIND TD9636_PRES TD9635_LAT TD9635_LON TD9635_WIND TD9635_PRES TD9635_ROCI NEUMANN_LAT NEUMANN_LON NEUMANN_CLASS NEUMANN_WIND NEUMANN_PRES MLC_LAT MLC_LON MLC_CLASS MLC_WIND MLC_PRES USA_GUST BOM_GUST BOM_GUST_PER REUNION_GUST REUNION_GUST_PER USA_SEAHGT USA_SEARAD_NE USA_SEARAD_SE USA_SEARAD_SW USA_SEARAD_NW STORM_SPEED STORM_DIR
1940284N13072 1940 72 NI AS NOT_NAMED 1940-10-10 00:00:00 TS 12.6000 71.7000 main 334 334 _________O____ -1 12.6000 71.7000 TC 30 3 313
1940284N13072 1940 72 NI AS NOT_NAMED 1940-10-10 03:00:00 TS 12.7017 71.5917 main 342 342 _________PO___ -1 12.7525 71.5376 TC 30 12.6000 71.7000 1 3 316
1940284N13072 1940 72 NI AS NOT_NAMED 1940-10-10 06:00:00 TS 12.8331 71.4731 main 351 349 _________OP___ -1 12.9000 71.4000 TC 30 12.7328 71.5828 1 3 321
1940284N13072 1940 72 NI AS NOT_NAMED 1940-10-10 09:00:00 TS 12.9696 71.3696 main 354 354 _________PP___ -1 13.0425 71.2999 TC 30 12.8725 71.4624 1 3 324
1940284N13072 1940 72 NI AS NOT_NAMED 1940-10-10 12:00:00 TS 13.1130 71.2679 main 357 354 _________OP___ -1 13.2000 71.2000 TC 30 13.0259 71.3359 1 4 324
1940284N13072 1940 72 NI AS NOT_NAMED 1940-10-10 15:00:00 TS 13.3000 71.1250 main 363 356 _________PO___ -1 13.4000 71.0500 TC 30 13.2000 71.2000 1 5 324
1940284N13072 1940 72 NI AS NOT_NAMED 1940-10-10 18:00:00 TS 13.4981 70.9774 main 360 359 _________OP___ -1 13.6000 70.9000 TC 30 13.3963 71.0548 1 5 325
1940284N13072 1940 72 NI AS NOT_NAMED 1940-10-10 21:00:00 TS 13.6875 70.8451 main 368 364 _________PP___ -1 13.7800 70.7775 TC 30 13.5950 70.9127 1 4 326
1940284N13072 1940 72 NI AS NOT_NAMED 1940-10-11 00:00:00 TS 13.8356 70.7446 main 374 369 _________OP___ -1 13.9000 70.7000 TC 30 13.7713 70.7892 1 3 326
1940284N13072 1940 72 NI AS NOT_NAMED 1940-10-11 03:00:00 TS 13.9112 70.6925 main 369 369 _________PO___ -1 13.9225 70.6850 TC 30 13.9000 70.7000 1 1 329
1940284N13072 1940 72 NI AS NOT_NAMED 1940-10-11 06:00:00 TS 13.9251 70.6820 main 369 369 _________OP___ -1 13.9000 70.7000 TC 30 13.9503 70.6639 1 0 0
1940284N13072 1940 72 NI AS NOT_NAMED 1940-10-11 09:00:00 TS 13.9262 70.6812 main 369 369 _________PP___ -1 13.9000 70.7000 TC 30 13.9525 70.6624 1 0 0
1940284N13072 1940 72 NI AS NOT_NAMED 1940-10-11 12:00:00 TS 13.9142 70.6898 main 369 369 _________OP___ -1 13.9000 70.7000 TC 30 13.9284 70.6796 1 0 0
1940284N13072 1940 72 NI AS NOT_NAMED 1940-10-11 15:00:00 TS 13.9000 70.7000 main 369 369 _________PO___ -1 13.9000 70.7000 TC 30 13.9000 70.7000 1 0 0
1940284N13072 1940 72 NI AS NOT_NAMED 1940-10-11 18:00:00 TS 13.8919 70.7061 main 369 369 _________OP___ -1 13.9000 70.7000 TC 30 13.8837 70.7122 1 0 0
1940284N13072 1940 72 NI AS NOT_NAMED 1940-10-11 21:00:00 TS 13.8775 70.7187 main 369 369 _________PP___ -1 13.8850 70.7150 TC 30 13.8700 70.7225 1 0 0
1940284N13072 1940 72 NI AS NOT_NAMED 1940-10-12 00:00:00 TS 13.8856 70.7108 main 369 369 _________OP___ -1 13.9000 70.7000 TC 30 13.8712 70.7215 1 1 312
1940284N13072 1940 72 NI AS NOT_NAMED 1940-10-12 03:00:00 TS 13.9425 70.6538 main 369 369 _________PO___ -1 13.9850 70.6075 TC 30 13.9000 70.7000 1 2 316
1940284N13072 1940 72 NI AS NOT_NAMED 1940-10-12 06:00:00 TS 14.0316 70.5713 main 376 372 _________OP___ -1 14.1000 70.5000 TC 30 13.9631 70.6425 1 2 321
1940284N13072 1940 72 NI AS NOT_NAMED 1940-10-12 09:00:00 TS 14.1238 70.5038 main 382 378 _________PP___ -1 14.1925 70.4425 TC 30 14.0550 70.5650 1 2 329
1940284N13072 1940 72 NI AS NOT_NAMED 1940-10-12 12:00:00 TS 14.2347 70.4400 main 387 379 _________OP___ -1 14.3000 70.4000 TC 30 14.1694 70.4800 1 3 333
1940284N13072 1940 72 NI AS NOT_NAMED 1940-10-12 15:00:00 TS 14.3713 70.3750 main 379 379 _________PO___ -1 14.4425 70.3500 TC 30 14.3000 70.4000 1 3 338
1940284N13072 1940 72 NI AS NOT_NAMED 1940-10-12 18:00:00 TS 14.5300 70.3174 main 385 377 _________OP___ -1 14.6000 70.3000 TC 30 14.4600 70.3347 1 4 341
1940284N13072 1940 72 NI AS NOT_NAMED 1940-10-12 21:00:00 TS 14.7013 70.2600 main 377 377 _________PP___ -1 14.7725 70.2425 TC 30 14.6300 70.2775 1 3 343
1940284N13072 1940 72 NI AS NOT_NAMED 1940-10-13 00:00:00 TS 14.8425 70.2158 main 382 377 _________OP___ -1 14.9000 70.2000 TC 30 14.7850 70.2316 1 2 346
1940284N13072 1940 72 NI AS NOT_NAMED 1940-10-13 03:00:00 TS 14.9112 70.1962 main 377 377 _________PO___ -1 14.9225 70.1925 TC 30 14.9000 70.2000 1 1 358
1940284N13072 1940 72 NI AS NOT_NAMED 1940-10-13 06:00:00 TS 14.9216 70.1928 main 377 377 _________OP___ -1 14.9000 70.2000 TC 30 14.9431 70.1856 1 0 0
1940284N13072 1940 72 NI AS NOT_NAMED 1940-10-13 09:00:00 TS 14.9225 70.1925 main 377 377 _________PP___ -1 14.9000 70.2000 TC 30 14.9450 70.1850 1 0 0
1940284N13072 1940 72 NI AS NOT_NAMED 1940-10-13 12:00:00 TS 14.9122 70.1959 main 377 377 _________OP___ -1 14.9000 70.2000 TC 30 14.9244 70.1918 1 0 0
1940284N13072 1940 72 NI AS NOT_NAMED 1940-10-13 15:00:00 TS 14.9000 70.2000 main 377 377 _________PO___ -1 14.9000 70.2000 TC 30 14.9000 70.2000 1 0 0
1940284N13072 1940 72 NI AS NOT_NAMED 1940-10-13 18:00:00 TS 14.8898 70.2000 main 377 377 _________OP___ -1 14.9000 70.2000 TC 30 14.8797 70.2000 1 0 0
1940284N13072 1940 72 NI AS NOT_NAMED 1940-10-13 21:00:00 TS 14.8738 70.2000 main 377 377 _________PP___ -1 14.8850 70.2000 TC 30 14.8625 70.2000 1 0 0
1940284N13072 1940 72 NI AS NOT_NAMED 1940-10-14 00:00:00 TS 14.8820 70.2000 main 377 377 _________OP___ -1 14.9000 70.2000 TC 30 14.8641 70.2000 1 1 18
1940284N13072 1940 72 NI AS NOT_NAMED 1940-10-14 03:00:00 TS 14.9387 70.2000 main 377 371 _________PO___ -1 14.9775 70.2000 TC 30 14.9000 70.2000 1 2 5
1940284N13072 1940 72 NI AS NOT_NAMED 1940-10-14 06:00:00 TS 15.0445 70.2000 main 371 362 _________OP___ -1 15.1000 70.2000 TC 30 14.9891 70.2000 1 2 6
1940284N13072 1940 72 NI AS NOT_NAMED 1940-10-14 09:00:00 TS 15.1813 70.2000 main 362 357 _________PP___ -1 15.2500 70.2000 TC 30 15.1125 70.2000 1 3 0
1940284N13072 1940 72 NI AS NOT_NAMED 1940-10-14 12:00:00 TS 15.3273 70.2000 main 357 353 _________OP___ -1 15.4000 70.2000 TC 30 15.2547 70.2000 1 3 0
1940284N13072 1940 72 NI AS NOT_NAMED 1940-10-14 15:00:00 TS 15.4500 70.2000 main 349 349 _________PO___ -1 15.5000 70.2000 TC 31 15.4000 70.2000 1 2 0
1940284N13072 1940 72 NI AS NOT_NAMED 1940-10-14 18:00:00 TS 15.5442 70.1799 main 349 346 _________OP___ -1 15.6000 70.2000 TC 32 15.4883 70.1598 1 2 344
1940284N13072 1940 72 NI AS NOT_NAMED 1940-10-14 21:00:00 TS 15.6474 70.1479 main 356 340 _________PP___ -1 15.7125 70.1701 TC 33 15.5823 70.1257 1 3 0
1940284N13072 1940 72 NI AS NOT_NAMED 1940-10-15 00:00:00 TS 15.8051 70.1644 main 340 325 _________OP___ -1 15.9000 70.2000 TC 34 15.7101 70.1287 1 4 17
1940284N13072 1940 72 NI AS NOT_NAMED 1940-10-15 03:00:00 TS 16.0600 70.2775 main 323 298 _________PO___ -1 16.2200 70.3550 TC 41 15.9000 70.2000 2 7 27
1940284N13072 1940 72 NI AS NOT_NAMED 1940-10-15 06:00:00 TS 16.4008 70.4787 main 298 274 _________OP___ -1 16.6000 70.6000 TC 49 16.2015 70.3575 2 8 32
1940284N13072 1940 72 NI AS NOT_NAMED 1940-10-15 09:00:00 TS 16.7637 70.7285 main 270 229 _________PP___ -1 16.9649 70.8700 TC 56 16.5624 70.5871 2 9 37
1940284N13072 1940 72 NI AS NOT_NAMED 1940-10-15 12:00:00 TS 17.1210 71.0366 main 229 181 _________OP___ -1 17.3000 71.2000 TC 64 16.9421 70.8732 2 9 44
1940284N13072 1940 72 NI AS NOT_NAMED 1940-10-15 15:00:00 TS 17.4325 71.3963 main 181 129 _________PO___ -1 17.5650 71.5926 TC 64 17.3000 71.2000 4 9 52
1940284N13072 1940 72 NI AS NOT_NAMED 1940-10-15 18:00:00 TS 17.6795 71.7959 main 129 81 _________OP___ -1 17.8000 72.0000 TC 64 17.5590 71.5918 4 9 58
1940284N13072 1940 72 NI AS NOT_NAMED 1940-10-15 21:00:00 TS 17.9142 72.2024 main 81 42 _________PP___ -1 18.0350 72.3950 TC 64 17.7934 72.0097 4 9 56
1940284N13072 1940 72 NI AS NOT_NAMED 1940-10-16 00:00:00 TS 18.1655 72.5489 main 42 10 _________OP___ -1 18.3000 72.7000 TC 64 18.0309 72.3979 4 8 45
1940284N13072 1940 72 NI AS NOT_NAMED 1940-10-16 03:00:00 TS 18.4637 72.7763 main 15 0 _________PO___ -1 18.6274 72.8526 TC 55 18.3000 72.7000 4 7 25
1940284N13072 1940 72 NI AS NOT_NAMED 1940-10-16 06:00:00 TS 18.8254 72.8761 main 10 0 _________OP___ -1 19.0000 72.9000 TC 47 18.6508 72.8521 4 8 10
1940284N13072 1940 72 NI AS NOT_NAMED 1940-10-16 09:00:00 TS 19.2210 72.9142 main 0 0 _________PP___ -1 19.4075 72.9151 TC 38 19.0345 72.9133 4 8 2
1940284N13072 1940 72 NI AS NOT_NAMED 1940-10-16 12:00:00 TS 19.6130 72.9088 main 0 0 _________OP___ -1 19.8000 72.9000 TC 30 19.4260 72.9177 4 7 358
1940284N13072 1940 72 NI AS NOT_NAMED 1940-10-16 15:00:00 TS 19.9575 72.9000 main 0 0 _________PO___ -1 20.1150 72.9000 TC 30 19.8000 72.9000 1 6 0
1940284N13072 1940 72 NI AS NOT_NAMED 1940-10-16 18:00:00 TS 20.2499 72.8936 main 0 0 _________OP___ -1 20.4000 72.9000 TC 30 20.1373 72.8887 1 6 0
1940284N13072 1940 72 NI AS NOT_NAMED 1940-10-16 21:00:00 TS 20.5436 72.8923 main 0 0 _________PP___ -1 20.6950 72.9000 TC 30 20.4427 72.8871 1 6 0
1940284N13072 1940 72 NI AS NOT_NAMED 1940-10-17 00:00:00 TS 20.8178 72.8946 main 0 0 _________OP___ -1 21.0000 72.9000 TC 30 20.7267 72.8919 1 5 0
1940284N13072 1940 72 NI AS NOT_NAMED 1940-10-17 03:00:00 NR 21.0000 72.9000 main 0 __________O___ -1 TC 21.0000 72.9000 1 4 0

IBTrACS Databaseについて

本データベースは、米国NOAAが公開する1842年以降の世界の熱帯低気圧のベストトラックデータアーカイブInternational Best Track Archive for Climate Stewardship (IBTrACS)を、ウェブで閲覧しやすい形式に変換したものです。

最終更新日:2021-10-25